Time;durP1;ratioP1;P1;durP2;ratioP2;P2;SDS_P1;SDS_P2;PMS_P1;PMS_P2;Temp;Humidity;BMP_temperature;BMP_pressure;BME280_temperature;BME280_humidity;BME280_pressure;Samples;Min_cycle;Max_cycle;Signal;HPM_P1;HPM_P2
2023/01/02 00:00:10;;;;;;;;;5.67;5.00;;;;;15.03;68.84;100929.34;4955854;28;45419;-49
2023/01/02 00:02:36;;;;;;;;;9.33;4.00;;;;;15.02;68.55;100924.16;4955753;28;45333;-51
2023/01/02 00:05:01;;;;;;;;;11.00;5.00;;;;;15.00;68.98;100927.03;4955832;28;45643;-49
2023/01/02 00:07:26;;;;;;;;;4.00;1.00;;;;;14.99;69.29;100928.00;4955488;28;45431;-50
2023/01/02 00:09:51;;;;;;;;;5.00;3.00;;;;;15.00;69.15;100932.38;4955488;28;45440;-50
2023/01/02 00:12:17;;;;;;;;;5.00;5.00;;;;;15.00;69.04;100937.75;4955462;28;45360;-49
2023/01/02 00:14:42;;;;;;;;;3.33;1.67;;;;;14.99;69.26;100941.41;4955631;28;45457;-49
2023/01/02 00:17:07;;;;;;;;;6.00;4.00;;;;;14.88;69.24;100928.41;4955270;28;47832;-47
2023/01/02 00:19:33;;;;;;;;;2.00;0.67;;;;;14.95;69.52;100950.78;4955562;28;45400;-48
2023/01/02 00:21:58;;;;;;;;;3.67;3.00;;;;;14.94;69.98;100947.28;4954218;28;45832;-47
2023/01/02 00:24:23;;;;;;;;;4.00;2.00;;;;;14.92;69.67;100952.00;4955517;28;45407;-50
2023/01/02 00:26:49;;;;;;;;;4.00;3.00;;;;;14.92;69.56;100956.50;4955061;28;46021;-47
2023/01/02 00:29:14;;;;;;;;;4.33;4.00;;;;;14.89;70.19;100957.69;4955288;28;45253;-49
2023/01/02 00:31:39;;;;;;;;;11.67;5.33;;;;;14.89;70.72;100946.97;4955324;28;45449;-48
2023/01/02 00:34:05;;;;;;;;;6.00;3.00;;;;;14.87;69.53;100956.16;4955854;28;45454;-47
2023/01/02 00:36:30;;;;;;;;;4.00;3.00;;;;;14.85;70.46;100950.97;4953697;28;46156;-48
2023/01/02 00:38:56;;;;;;;;;3.67;2.67;;;;;14.84;71.10;100945.81;4954985;28;45168;-50
2023/01/02 00:41:22;;;;;;;;;3.33;3.00;;;;;14.81;71.37;100941.63;4955301;28;45276;-48
2023/01/02 00:43:48;;;;;;;;;3.33;3.00;;;;;14.78;71.73;100946.47;4955274;28;45269;-49
2023/01/02 00:46:14;;;;;;;;;4.00;2.67;;;;;14.79;72.07;100945.44;4954888;28;45967;-49
2023/01/02 00:48:40;;;;;;;;;2.00;2.00;;;;;14.80;71.47;100952.50;4954772;28;45458;-47
2023/01/02 00:51:05;;;;;;;;;3.00;3.00;;;;;14.77;71.42;100948.31;4954986;28;45566;-48
2023/01/02 00:53:30;;;;;;;;;6.33;4.00;;;;;14.76;72.10;100945.81;4955135;28;45459;-47
2023/01/02 00:55:56;;;;;;;;;4.00;2.00;;;;;14.72;72.38;100950.66;4954690;28;46239;-49
2023/01/02 00:58:21;;;;;;;;;2.67;2.00;;;;;14.70;72.03;100953.50;4954899;28;45280;-46
2023/01/02 01:00:49;;;;;;;;;3.00;1.67;;;;;14.69;71.63;100946.47;4954848;28;45339;-47
2023/01/02 01:03:14;;;;;;;;;5.00;3.00;;;;;14.67;72.82;100948.50;4955183;28;45484;-49
2023/01/02 01:05:40;;;;;;;;;2.67;2.00;;;;;14.67;73.09;100945.81;4955894;28;46468;-48
2023/01/02 01:08:05;;;;;;;;;2.00;2.00;;;;;14.64;73.44;100946.16;4955906;28;45338;-49
2023/01/02 01:10:31;;;;;;;;;2.67;2.00;;;;;14.57;73.45;100939.78;4957862;28;45436;-49
2023/01/02 01:12:56;;;;;;;;;11.00;5.00;;;;;14.61;73.45;100954.50;4957688;28;45268;-48
2023/01/02 01:15:22;;;;;;;;;6.33;3.00;;;;;14.52;73.63;100939.47;4957633;28;45732;-49
2023/01/02 01:17:47;;;;;;;;;6.67;3.00;;;;;14.60;73.42;100947.50;4957680;28;45243;-48
2023/01/02 01:20:13;;;;;;;;;4.00;2.00;;;;;14.58;72.59;100949.50;4957629;28;45364;-49
2023/01/02 01:22:38;;;;;;;;;7.33;3.00;;;;;14.55;74.09;100957.03;4957806;28;45216;-48
2023/01/02 01:25:04;;;;;;;;;6.33;2.33;;;;;14.49;74.25;100955.84;4957222;28;51938;-47
2023/01/02 01:27:29;;;;;;;;;7.00;4.00;;;;;14.51;74.11;100964.56;4957296;28;45485;-48
2023/01/02 01:29:54;;;;;;;;;2.00;2.00;;;;;14.51;74.20;100959.19;4957639;28;45265;-50
2023/01/02 01:32:20;;;;;;;;;4.67;2.00;;;;;14.46;74.50;100956.16;4957931;28;45339;-52
2023/01/02 01:34:45;;;;;;;;;4.33;2.33;;;;;14.46;75.03;100961.53;4958227;28;46233;-52
2023/01/02 01:37:11;;;;;;;;;7.33;3.67;;;;;14.46;74.76;100965.03;4957797;28;45303;-51
2023/01/02 01:39:36;;;;;;;;;4.00;2.33;;;;;14.35;74.59;100943.94;4956415;28;45427;-48
2023/01/02 01:42:02;;;;;;;;;3.33;3.33;;;;;14.44;74.08;100958.16;4956180;28;45447;-50
2023/01/02 01:44:52;;;;;;;;;5.67;2.33;;;;;14.40;74.74;100960.31;4958959;28;45345;-53
2023/01/02 01:47:44;;;;;;;;;4.00;2.00;;;;;14.38;74.75;100958.84;4957075;28;45318;-48
2023/01/02 01:50:34;;;;;;;;;2.67;2.00;;;;;14.35;75.43;100964.50;4957041;28;45413;-48
2023/01/02 01:53:10;;;;;;;;;3.00;3.00;;;;;14.32;74.92;100965.66;4957327;28;45246;-48
2023/01/02 01:55:42;;;;;;;;;1.00;1.00;;;;;14.31;75.43;100976.56;4956816;28;47082;-48
2023/01/02 01:58:28;;;;;;;;;4.00;2.00;;;;;14.31;75.13;100992.59;4957068;28;45487;-48
2023/01/02 02:00:54;;;;;;;;;3.00;3.00;;;;;14.27;76.04;101001.97;4957212;28;45168;-49
2023/01/02 02:03:25;;;;;;;;;4.33;3.00;;;;;14.21;76.28;100998.94;4957313;28;45306;-47
2023/01/02 02:05:51;;;;;;;;;2.33;1.00;;;;;14.21;76.38;101009.66;4956913;28;46090;-47
2023/01/02 02:08:40;;;;;;;;;2.00;2.00;;;;;14.22;76.30;101023.88;4957115;28;45271;-48
2023/01/02 02:11:06;;;;;;;;;3.00;3.00;;;;;14.20;75.90;101016.00;4957218;28;45358;-47
2023/01/02 02:13:33;;;;;;;;;3.33;2.00;;;;;14.20;76.87;101023.22;4957195;28;45503;-49
2023/01/02 02:16:33;;;;;;;;;2.00;2.00;;;;;14.17;76.47;101029.72;4956969;28;45363;-50
2023/01/02 02:19:11;;;;;;;;;2.67;1.33;;;;;14.17;76.63;101040.41;4915759;28;45368;-46
2023/01/02 02:21:54;;;;;;;;;4.00;1.67;;;;;14.17;76.85;101037.72;4915686;28;45446;-47
2023/01/02 02:24:25;;;;;;;;;1.67;1.67;;;;;14.15;76.52;101039.72;4916415;28;45627;-47
2023/01/02 02:27:28;;;;;;;;;2.00;2.00;;;;;14.14;77.23;101043.41;4900064;28;46462;-46
2023/01/02 02:30:06;;;;;;;;;1.33;1.00;;;;;14.12;77.47;101041.91;4916335;28;45412;-46
2023/01/02 02:32:50;;;;;;;;;1.67;1.00;;;;;14.10;77.79;101035.88;4915989;28;45531;-47
2023/01/02 02:35:48;;;;;;;;;1.33;1.33;;;;;14.07;77.86;101037.00;4916355;28;45290;-48
2023/01/02 02:38:32;;;;;;;;;1.00;1.00;;;;;14.05;78.74;101032.84;4916156;28;47077;-47
2023/01/02 02:41:08;;;;;;;;;5.00;1.67;;;;;14.05;78.57;101046.22;4915789;28;45538;-48
2023/01/02 02:43:45;;;;;;;;;2.67;1.67;;;;;14.03;78.64;101041.03;4915826;28;45357;-46
2023/01/02 02:46:34;;;;;;;;;3.00;1.00;;;;;14.03;79.37;101049.06;4916103;28;45547;-48
2023/01/02 02:49:09;;;;;;;;;1.67;1.67;;;;;14.06;79.14;101045.22;4915565;28;46261;-49
2023/01/02 02:52:00;;;;;;;;;5.33;2.67;;;;;14.07;79.09;101034.34;4899538;28;45350;-46
2023/01/02 02:54:33;;;;;;;;;2.67;1.33;;;;;14.07;78.96;101026.31;4896730;28;45546;-49
2023/01/02 02:57:00;;;;;;;;;1.00;1.00;;;;;14.07;78.96;101031.66;4897032;28;45314;-50
2023/01/02 02:59:27;;;;;;;;;2.00;1.00;;;;;14.05;78.02;101031.00;4896590;29;46287;-47
2023/01/02 03:01:52;;;;;;;;;2.00;2.00;;;;;14.02;79.19;101036.66;4896668;29;45466;-49
2023/01/02 03:04:20;;;;;;;;;3.00;1.67;;;;;13.99;79.61;101050.38;4896902;28;45406;-49
2023/01/02 03:07:01;;;;;;;;;1.00;1.00;;;;;13.97;79.55;101050.53;4896902;29;45540;-61
2023/01/02 03:09:53;;;;;;;;;5.00;2.00;;;;;13.96;78.86;101048.88;4896706;28;46156;-49
2023/01/02 03:12:33;;;;;;;;;1.00;1.00;;;;;13.93;80.25;101053.69;4896334;28;45376;-50
2023/01/02 03:15:18;;;;;;;;;4.67;1.00;;;;;13.90;80.34;101045.97;4896550;29;45520;-46
2023/01/02 03:18:07;;;;;;;;;2.00;2.00;;;;;13.83;80.68;101020.91;4896529;28;45485;-47
2023/01/02 03:20:40;;;;;;;;;2.00;2.00;;;;;13.94;80.64;101036.63;4896437;28;46183;-46
2023/01/02 03:23:12;;;;;;;;;1.00;1.00;;;;;13.93;80.27;101043.81;4896520;29;45387;-48
2023/01/02 03:25:39;;;;;;;;;1.00;1.00;;;;;13.93;80.53;101043.81;4896834;28;45551;-52
2023/01/02 03:28:08;;;;;;;;;3.00;1.00;;;;;13.93;80.53;101053.69;4896601;28;45278;-48
2023/01/02 03:30:38;;;;;;;;;1.00;1.00;;;;;13.92;79.93;101042.16;4904863;28;47502;-52
2023/01/02 03:33:09;;;;;;;;;2.00;0.67;;;;;13.86;80.02;101048.16;4956122;28;45380;-49
2023/01/02 03:35:47;;;;;;;;;0.00;0.00;;;;;13.86;79.70;101056.19;4956191;28;45347;-48
2023/01/02 03:38:24;;;;;;;;;0.00;0.00;;;;;13.87;79.67;101052.50;4956260;28;45450;-48
2023/01/02 03:41:00;;;;;;;;;2.00;1.00;;;;;13.88;79.21;101056.84;4955870;28;48312;-46
2023/01/02 03:43:30;;;;;;;;;0.00;0.00;;;;;13.85;79.07;101064.34;4955842;28;45490;-49
2023/01/02 03:46:20;;;;;;;;;0.00;0.00;;;;;13.82;78.85;101065.53;4956078;28;45161;-47
2023/01/02 03:49:22;;;;;;;;;0.00;0.00;;;;;13.80;78.38;101080.88;4956093;28;45314;-50
2023/01/02 03:51:49;;;;;;;;;1.67;0.00;;;;;13.75;78.17;101088.53;4915088;28;47186;-48
2023/01/02 03:54:16;;;;;;;;;0.00;0.00;;;;;13.73;78.20;101087.84;4915013;28;45408;-46
2023/01/02 03:56:59;;;;;;;;;1.00;0.00;;;;;13.70;78.18;101089.03;4915216;28;45386;-53
2023/01/02 03:59:32;;;;;;;;;0.00;0.00;;;;;13.72;78.47;101105.72;4915825;28;45383;-47
2023/01/02 04:02:10;;;;;;;;;0.00;0.00;;;;;13.72;78.12;101094.19;4915564;28;46309;-49
2023/01/02 04:04:47;;;;;;;;;0.00;0.00;;;;;13.75;78.13;101101.09;4915091;28;45354;-49
2023/01/02 04:07:26;;;;;;;;;0.67;0.00;;;;;13.70;78.24;101096.22;4915246;28;45436;-49
2023/01/02 04:09:52;;;;;;;;;0.00;0.00;;;;;13.66;78.11;101093.00;4899270;28;45365;-47
2023/01/02 04:12:20;;;;;;;;;1.67;0.00;;;;;13.62;78.09;101091.66;4914718;28;46296;-48
2023/01/02 04:14:57;;;;;;;;;0.00;0.00;;;;;13.61;77.69;101089.97;4915016;28;45373;-46
2023/01/02 04:17:25;;;;;;;;;1.00;0.00;;;;;13.61;77.87;101094.47;4914970;28;45270;-47
2023/01/02 04:20:01;;;;;;;;;1.00;0.00;;;;;13.48;77.76;101078.84;4915096;28;45352;-46
2023/01/02 04:22:37;;;;;;;;;0.00;0.00;;;;;13.59;77.65;101097.31;4914835;28;45440;-49
2023/01/02 04:25:12;;;;;;;;;0.00;0.00;;;;;13.59;77.50;101099.13;4914738;28;45499;-47
2023/01/02 04:28:08;;;;;;;;;0.00;0.00;;;;;13.59;77.77;101105.31;4940303;28;45445;-49
2023/01/02 04:30:38;;;;;;;;;0.00;0.00;;;;;13.56;77.86;101104.78;4951137;28;45256;-49
2023/01/02 04:33:07;;;;;;;;;0.00;0.00;;;;;13.51;77.83;101099.09;4955291;28;46405;-47
2023/01/02 04:35:34;;;;;;;;;0.00;0.00;;;;;13.53;77.93;101113.16;4955146;28;45342;-48
2023/01/02 04:38:09;;;;;;;;;0.00;0.00;;;;;13.51;77.75;101112.44;4955406;28;45305;-49
2023/01/02 04:40:36;;;;;;;;;1.00;0.00;;;;;13.51;78.03;101120.47;4955504;28;45329;-50
2023/01/02 04:43:11;;;;;;;;;0.00;0.00;;;;;13.48;78.62;101127.81;4954916;28;47280;-48
2023/01/02 04:45:36;;;;;;;;;0.00;0.00;;;;;13.51;78.28;101128.50;4955153;28;45224;-49
2023/01/02 04:48:02;;;;;;;;;0.00;0.00;;;;;13.49;78.46;101136.66;4955114;28;45407;-45
2023/01/02 04:50:27;;;;;;;;;0.00;0.00;;;;;13.46;78.47;101150.34;4955462;28;45439;-48
2023/01/02 04:52:53;;;;;;;;;0.00;0.00;;;;;13.48;78.62;101145.66;4954928;28;46098;-48
2023/01/02 04:55:18;;;;;;;;;0.00;0.00;;;;;13.47;78.46;101152.00;4955297;28;45429;-49
2023/01/02 04:57:43;;;;;;;;;0.00;0.00;;;;;13.49;78.57;101150.03;4955012;28;45227;-49
2023/01/02 05:00:09;;;;;;;;;0.00;0.00;;;;;13.47;78.19;101155.50;4953972;28;45455;-49
2023/01/02 05:02:36;;;;;;;;;2.33;0.00;;;;;13.49;77.96;101166.06;4954246;28;46223;-50
2023/01/02 05:05:02;;;;;;;;;0.00;0.00;;;;;13.45;78.85;101168.22;4954813;28;45394;-49
2023/01/02 05:07:28;;;;;;;;;2.00;0.00;;;;;13.39;78.70;101166.13;4954777;28;45395;-48
2023/01/02 05:09:53;;;;;;;;;0.00;0.00;;;;;13.38;78.42;101167.13;4957099;28;45333;-46
2023/01/02 05:12:18;;;;;;;;;1.00;0.33;;;;;13.36;78.56;101170.97;4954743;28;46117;-49
2023/01/02 05:14:44;;;;;;;;;0.00;0.00;;;;;13.36;78.67;101179.84;4954652;28;47482;-47
2023/01/02 05:17:09;;;;;;;;;0.00;0.00;;;;;13.36;78.85;101187.00;4954921;28;45298;-49
2023/01/02 05:19:34;;;;;;;;;1.00;0.00;;;;;13.34;79.00;101192.50;4955253;28;45360;-46
2023/01/02 05:24:43;;;;;;;;;4.00;1.00;;;;;13.28;78.85;101192.28;4954451;28;45442;-48
2023/01/02 05:27:09;;;;;;;;;0.00;0.00;;;;;13.33;78.60;101201.50;4954449;28;45531;-49
2023/01/02 05:29:34;;;;;;;;;0.00;0.00;;;;;13.28;78.59;101206.47;4954897;28;45507;-50
2023/01/02 05:31:59;;;;;;;;;0.00;0.00;;;;;13.30;78.95;101211.66;4954374;28;46011;-46
2023/01/02 05:34:25;;;;;;;;;0.00;0.00;;;;;13.27;78.62;101215.47;4954463;28;45397;-47
2023/01/02 05:36:50;;;;;;;;;0.00;0.00;;;;;13.27;78.41;101222.63;4954528;28;45425;-47
2023/01/02 05:39:15;;;;;;;;;0.00;0.00;;;;;13.26;78.43;101228.97;4954868;28;45404;-50
2023/01/02 05:41:41;;;;;;;;;0.00;0.00;;;;;13.26;78.86;101237.00;4954404;28;45299;-46
2023/01/02 05:44:08;;;;;;;;;0.00;0.00;;;;;13.23;78.89;101232.78;4954043;28;45483;-47
2023/01/02 05:46:34;;;;;;;;;0.00;0.00;;;;;13.25;78.32;101232.66;4954343;28;45228;-51
2023/01/02 05:49:02;;;;;;;;;1.00;0.00;;;;;13.21;78.62;101238.25;4954077;28;45464;-46
2023/01/02 05:51:27;;;;;;;;;0.00;0.00;;;;;13.21;78.76;101238.25;4954044;28;45386;-48
2023/01/02 05:53:53;;;;;;;;;0.00;0.00;;;;;13.12;78.87;101231.16;4954898;28;45429;-47
2023/01/02 05:56:20;;;;;;;;;0.00;0.00;;;;;13.21;78.61;101248.13;4957172;28;45474;-47
2023/01/02 05:58:47;;;;;;;;;0.00;0.00;;;;;13.19;78.60;101248.28;4957313;28;45425;-50
2023/01/02 06:01:15;;;;;;;;;0.00;0.00;;;;;13.22;78.55;101249.78;4956887;28;46194;-48
2023/01/02 06:03:45;;;;;;;;;0.00;0.00;;;;;13.20;78.71;101249.09;4956941;28;45387;-48
2023/01/02 06:06:11;;;;;;;;;1.00;0.00;;;;;13.16;78.80;101242.38;4957043;28;45338;-48
2023/01/02 06:08:37;;;;;;;;;1.00;0.00;;;;;13.16;78.75;101251.25;4957348;28;45281;-46
2023/01/02 06:11:03;;;;;;;;;0.00;0.00;;;;;12.86;79.02;101212.38;4956900;28;47376;-47
2023/01/02 06:13:30;;;;;;;;;0.00;0.00;;;;;13.10;78.59;101259.84;4956492;28;45384;-47
2023/01/02 06:15:57;;;;;;;;;0.00;0.00;;;;;13.10;79.10;101259.84;4956945;28;45376;-46
2023/01/02 06:18:23;;;;;;;;;0.00;0.00;;;;;13.09;78.91;101258.16;4957023;28;45331;-50
2023/01/02 06:20:48;;;;;;;;;0.00;0.00;;;;;13.11;78.70;101279.41;4956605;28;47154;-49
2023/01/02 06:23:15;;;;;;;;;0.00;0.00;;;;;13.09;78.88;101273.34;4956771;28;45414;-45
2023/01/02 06:25:40;;;;;;;;;0.00;0.00;;;;;13.06;78.63;101279.84;4957067;28;45324;-48
2023/01/02 06:28:06;;;;;;;;;0.00;0.00;;;;;13.05;78.84;101288.84;4956845;28;45375;-47
2023/01/02 06:30:31;;;;;;;;;0.00;0.00;;;;;13.05;78.73;101285.31;4956767;28;47487;-46
2023/01/02 06:32:57;;;;;;;;;0.00;0.00;;;;;13.02;78.95;101281.16;4956586;28;45285;-48
2023/01/02 06:35:22;;;;;;;;;0.00;0.00;;;;;13.01;78.93;101289.28;4956735;28;45414;-51
2023/01/02 06:37:48;;;;;;;;;0.00;0.00;;;;;12.96;78.75;101290.56;4957040;28;45349;-50
2023/01/02 06:40:13;;;;;;;;;0.00;0.00;;;;;12.97;79.08;101288.75;4956302;28;46260;-47
2023/01/02 06:42:39;;;;;;;;;0.00;0.00;;;;;12.95;78.87;101298.75;4956315;28;45226;-47
2023/01/02 06:45:05;;;;;;;;;0.33;0.00;;;;;12.92;78.79;101304.38;4956731;28;45471;-49
2023/01/02 06:47:30;;;;;;;;;0.00;0.00;;;;;12.92;79.27;101312.38;4956846;28;45221;-47
2023/01/02 06:49:55;;;;;;;;;0.00;0.00;;;;;12.90;79.00;101304.53;4956051;28;46102;-46
2023/01/02 06:52:21;;;;;;;;;0.00;0.00;;;;;12.84;79.09;101304.28;4956251;28;45292;-48
2023/01/02 06:54:46;;;;;;;;;0.00;0.00;;;;;12.86;78.86;101313.00;4956697;28;45414;-48
2023/01/02 06:57:11;;;;;;;;;0.33;0.00;;;;;12.87;79.21;101312.84;4956681;28;45406;-47
2023/01/02 06:59:37;;;;;;;;;0.00;0.00;;;;;12.84;79.10;101309.59;4956297;28;46036;-50
2023/01/02 07:02:02;;;;;;;;;0.00;0.00;;;;;12.81;79.29;101304.56;4956248;28;45450;-46
2023/01/02 07:04:27;;;;;;;;;0.00;0.00;;;;;12.79;78.61;101299.38;4956133;28;45406;-46
2023/01/02 07:06:53;;;;;;;;;0.00;0.00;;;;;12.74;78.68;101293.66;4955567;28;45458;-47
2023/01/02 07:09:18;;;;;;;;;0.00;0.00;;;;;12.69;78.48;101286.06;4956158;28;45434;-48
2023/01/02 07:11:43;;;;;;;;;0.00;0.00;;;;;12.65;78.82;101294.53;4956259;28;45303;-49
2023/01/02 07:14:09;;;;;;;;;0.00;0.00;;;;;12.65;78.77;101297.19;4956103;28;45500;-48
2023/01/02 07:16:34;;;;;;;;;0.00;0.00;;;;;12.62;79.29;101303.66;4956260;28;45350;-46
2023/01/02 07:18:59;;;;;;;;;0.00;0.00;;;;;12.58;79.29;101299.59;4955967;28;46178;-48
2023/01/02 07:21:25;;;;;;;;;0.00;0.00;;;;;12.62;78.87;101310.84;4956098;28;45395;-46
2023/01/02 07:23:50;;;;;;;;;0.00;0.00;;;;;12.61;78.80;101317.16;4956083;28;45449;-48
2023/01/02 07:26:16;;;;;;;;;0.00;0.00;;;;;12.52;78.91;101300.19;4956215;28;45533;-48
2023/01/02 07:28:41;;;;;;;;;0.67;0.67;;;;;12.56;78.84;101312.25;4955980;28;45506;-48
2023/01/02 07:31:12;;;;;;;;;0.00;0.00;;;;;12.58;79.15;101331.63;4956143;28;45440;-47
2023/01/02 07:33:37;;;;;;;;;0.00;0.00;;;;;12.59;78.63;101325.28;4956053;28;45352;-45
2023/01/02 07:36:06;;;;;;;;;0.00;0.00;;;;;12.55;78.64;101315.91;4956279;28;45469;-49
2023/01/02 07:38:32;;;;;;;;;0.00;0.00;;;;;12.51;78.98;101314.50;4955996;28;46283;-50
2023/01/02 07:40:57;;;;;;;;;1.00;0.00;;;;;12.57;78.85;101329.13;4956071;28;45229;-48
2023/01/02 07:43:23;;;;;;;;;0.67;0.00;;;;;12.53;78.70;101333.91;4955937;28;45313;-48
2023/01/02 07:45:48;;;;;;;;;0.00;0.00;;;;;12.51;78.55;101349.19;4956368;28;45197;-48
2023/01/02 07:48:14;;;;;;;;;0.00;0.00;;;;;12.49;78.53;101340.50;4954439;28;46249;-46
2023/01/02 07:50:39;;;;;;;;;0.00;0.00;;;;;12.47;78.90;101335.31;4955962;28;45351;-49
2023/01/02 07:53:05;;;;;;;;;0.00;0.00;;;;;12.16;78.59;101299.16;4955911;28;45344;-47
2023/01/02 07:55:30;;;;;;;;;0.00;0.00;;;;;12.47;79.45;101363.81;4956216;28;45411;-48
2023/01/02 07:57:55;;;;;;;;;0.00;0.00;;;;;12.47;79.13;101359.34;4955446;28;46307;-49
2023/01/02 08:00:21;;;;;;;;;0.00;0.00;;;;;12.48;78.92;101370.84;4955634;28;48605;-48
2023/01/02 08:02:48;;;;;;;;;0.00;0.00;;;;;12.47;78.58;101371.81;4955893;28;45349;-46
2023/01/02 08:05:15;;;;;;;;;0.00;0.00;;;;;12.45;78.75;101387.16;4955932;28;45329;-49
2023/01/02 08:07:41;;;;;;;;;0.00;0.00;;;;;12.45;78.87;101384.47;4955586;28;46442;-47
2023/01/02 08:10:06;;;;;;;;;0.00;0.00;;;;;12.47;78.73;101395.84;4955515;28;45419;-47
2023/01/02 08:12:32;;;;;;;;;0.00;0.00;;;;;12.45;79.02;101389.81;4955625;28;45458;-45
2023/01/02 08:14:57;;;;;;;;;0.00;0.00;;;;;12.47;78.50;101402.03;4955816;28;45469;-53
2023/01/02 08:17:22;;;;;;;;;0.00;0.00;;;;;12.46;78.53;101400.34;4955000;28;46161;-46
2023/01/02 08:19:48;;;;;;;;;0.00;0.00;;;;;12.44;78.47;101410.31;4955534;28;45356;-48
2023/01/02 08:22:13;;;;;;;;;0.00;0.00;;;;;12.42;78.28;101404.28;4955520;28;45396;-47
2023/01/02 08:24:38;;;;;;;;;0.00;0.00;;;;;12.43;78.77;101410.44;4955858;28;45336;-48
2023/01/02 08:27:04;;;;;;;;;0.00;0.00;;;;;12.42;78.54;101414.09;4955239;28;46355;-47
2023/01/02 08:29:29;;;;;;;;;0.00;0.00;;;;;12.41;78.67;101425.78;4955185;28;45370;-46
2023/01/02 08:31:57;;;;;;;;;3.00;0.00;;;;;12.41;78.69;101425.78;4954398;28;45379;-47
2023/01/02 08:34:23;;;;;;;;;1.00;1.00;;;;;12.45;78.74;101427.16;4955537;28;45483;-49
2023/01/02 08:36:48;;;;;;;;;0.67;0.00;;;;;12.41;78.25;101417.75;4955235;28;45482;-48
2023/01/02 08:39:14;;;;;;;;;0.00;0.00;;;;;12.48;78.66;101435.75;4954032;28;45554;-51
2023/01/02 08:41:40;;;;;;;;;0.00;0.00;;;;;12.52;78.02;101443.47;4955461;28;45435;-51
2023/01/02 08:44:06;;;;;;;;;0.00;0.00;;;;;12.51;78.58;101439.09;4956031;28;45466;-47
2023/01/02 08:46:33;;;;;;;;;0.00;0.00;;;;;12.52;77.52;101454.97;4955335;28;46456;-48
2023/01/02 08:48:59;;;;;;;;;1.00;1.00;;;;;12.54;77.99;101454.81;4954998;28;45256;-48
2023/01/02 08:51:25;;;;;;;;;0.67;0.67;;;;;12.53;77.29;101464.66;4955367;28;45307;-51
2023/01/02 08:53:51;;;;;;;;;1.00;0.00;;;;;12.54;77.21;101487.69;4954008;28;45380;-47
2023/01/02 08:56:31;;;;;;;;;0.00;0.00;;;;;12.54;76.91;101501.03;4955058;28;46141;-49
2023/01/02 08:58:59;;;;;;;;;0.33;0.00;;;;;12.52;77.36;101503.03;4954847;28;45382;-47
2023/01/02 09:01:25;;;;;;;;;2.00;0.00;;;;;12.47;77.00;101518.59;4955138;28;45288;-49
2023/01/02 09:03:52;;;;;;;;;1.00;1.00;;;;;12.52;77.33;101528.88;4955047;28;45391;-48
2023/01/02 09:06:19;;;;;;;;;0.00;0.00;;;;;12.52;77.36;101543.06;4954877;28;47042;-49
2023/01/02 09:08:44;;;;;;;;;0.00;0.00;;;;;12.54;77.10;101546.41;4954837;28;45455;-48
2023/01/02 09:11:19;;;;;;;;;0.00;0.00;;;;;12.55;76.45;101550.75;4955108;28;45320;-49
2023/01/02 09:13:44;;;;;;;;;0.00;0.00;;;;;12.55;76.74;101545.41;4955108;28;45237;-49
2023/01/02 09:16:10;;;;;;;;;0.00;0.00;;;;;12.57;75.99;101550.63;4954781;28;45884;-50
2023/01/02 09:18:37;;;;;;;;;0.00;0.00;;;;;12.59;76.50;101557.50;4954698;28;45327;-49
2023/01/02 09:21:02;;;;;;;;;0.00;0.00;;;;;12.60;76.47;101548.53;4954687;28;45335;-49
2023/01/02 09:23:29;;;;;;;;;1.00;1.00;;;;;12.57;76.43;101518.59;4954962;28;45350;-47
2023/01/02 09:26:03;;;;;;;;;0.33;0.00;;;;;12.59;76.09;101525.47;4954522;28;45316;-50
2023/01/02 09:28:30;;;;;;;;;0.00;0.00;;;;;12.49;76.73;101529.97;4954912;28;45330;-50
2023/01/02 09:30:55;;;;;;;;;0.67;0.00;;;;;12.60;76.22;101553.88;4957607;28;45433;-49
2023/01/02 09:33:21;;;;;;;;;0.33;0.00;;;;;12.48;76.14;101541.66;4957981;28;45225;-51
2023/01/02 09:35:46;;;;;;;;;0.00;0.00;;;;;12.55;76.14;101566.78;4957537;28;46139;-49
2023/01/02 09:38:12;;;;;;;;;0.00;0.00;;;;;12.54;77.04;101573.09;4957312;28;49852;-47
2023/01/02 09:40:52;;;;;;;;;0.00;0.00;;;;;12.53;76.92;101575.91;4957581;28;45430;-51
2023/01/02 09:43:30;;;;;;;;;2.67;0.67;;;;;12.53;77.22;101584.75;4957702;28;45370;-46
2023/01/02 09:45:59;;;;;;;;;1.67;0.00;;;;;12.54;76.80;101581.09;4957252;28;45381;-50
2023/01/02 09:48:33;;;;;;;;;1.00;0.00;;;;;12.51;77.02;101584.03;4957257;28;45352;-46
2023/01/02 09:51:00;;;;;;;;;1.33;0.00;;;;;12.52;77.64;101590.25;4957526;28;45426;-51
2023/01/02 09:53:26;;;;;;;;;1.00;0.00;;;;;12.54;77.18;101593.59;4957314;28;45397;-48
2023/01/02 09:56:02;;;;;;;;;1.00;0.00;;;;;12.55;77.62;101612.16;4957345;28;45454;-46
2023/01/02 09:58:53;;;;;;;;;1.00;0.00;;;;;12.58;77.21;101629.72;4957105;28;45430;-49
2023/01/02 10:01:33;;;;;;;;;3.00;0.00;;;;;12.57;77.24;101642.22;4957481;28;45350;-50
2023/01/02 10:04:23;;;;;;;;;0.00;0.00;;;;;12.55;77.64;101638.84;4957500;28;45194;-47
2023/01/02 10:07:01;;;;;;;;;1.67;1.00;;;;;12.54;77.26;101639.81;4956929;28;45731;-49
2023/01/02 10:09:40;;;;;;;;;0.67;0.00;;;;;12.55;77.27;101644.16;4957217;28;45419;-48
2023/01/02 10:12:36;;;;;;;;;0.33;0.33;;;;;12.54;77.17;101642.50;4957109;28;45255;-48
2023/01/02 10:15:06;;;;;;;;;0.00;0.00;;;;;12.54;77.77;101639.81;4916354;28;45254;-46
2023/01/02 10:17:38;;;;;;;;;1.00;1.00;;;;;12.56;77.77;101645.03;4916229;28;47007;-47
2023/01/02 10:20:27;;;;;;;;;0.00;0.00;;;;;12.57;77.83;101620.88;4900483;28;45512;-55
2023/01/02 10:22:59;;;;;;;;;2.00;0.67;;;;;12.59;77.29;101628.72;4916399;28;45440;-45
2023/01/02 10:25:41;;;;;;;;;0.67;0.67;;;;;12.53;77.96;101606.13;4916408;28;45386;-50
2023/01/02 10:28:21;;;;;;;;;0.67;0.00;;;;;12.57;77.77;101594.19;4915973;28;45608;-47
2023/01/02 10:30:53;;;;;;;;;2.00;0.00;;;;;12.67;77.85;101596.84;4915918;28;45462;-50
2023/01/02 10:33:50;;;;;;;;;0.67;0.67;;;;;12.71;77.53;101603.59;4916208;28;45414;-48
2023/01/02 10:36:30;;;;;;;;;0.00;0.00;;;;;12.73;77.64;101612.31;4916450;28;45359;-48
2023/01/02 10:39:05;;;;;;;;;3.00;0.00;;;;;12.73;77.13;101629.19;4915962;28;47369;-47
2023/01/02 10:41:32;;;;;;;;;0.33;0.33;;;;;12.77;77.44;101640.44;4916120;28;45397;-49
2023/01/02 10:44:34;;;;;;;;;1.00;1.00;;;;;12.78;76.75;101628.75;4916018;28;45794;-47
2023/01/02 10:47:19;;;;;;;;;1.00;1.00;;;;;12.81;77.14;101633.84;4916353;28;45259;-47
2023/01/02 10:49:46;;;;;;;;;3.00;1.33;;;;;12.81;77.11;101635.63;4899696;28;46448;-48
2023/01/02 10:52:31;;;;;;;;;2.00;0.67;;;;;12.83;76.83;101660.38;4940546;28;45270;-49
2023/01/02 10:54:57;;;;;;;;;1.67;1.00;;;;;12.85;76.40;101663.75;4956669;28;45470;-50
2023/01/02 10:57:29;;;;;;;;;0.00;0.00;;;;;12.85;76.94;101674.44;4956846;28;45830;-48
2023/01/02 10:59:58;;;;;;;;;1.67;1.00;;;;;12.85;76.61;101683.31;4954913;28;46308;-50
2023/01/02 11:02:37;;;;;;;;;1.00;1.00;;;;;12.85;76.82;101690.44;4956393;28;45364;-51
2023/01/02 11:05:04;;;;;;;;;0.00;0.00;;;;;12.87;76.92;101685.81;4956520;28;45351;-49
2023/01/02 11:07:35;;;;;;;;;1.00;1.00;;;;;12.89;76.72;101665.16;4956697;28;45419;-46
2023/01/02 11:10:01;;;;;;;;;1.67;1.67;;;;;12.90;76.85;101666.88;4956235;28;46298;-50
2023/01/02 11:12:27;;;;;;;;;1.00;1.00;;;;;12.95;76.40;101669.97;4956264;28;45460;-48
2023/01/02 11:15:09;;;;;;;;;1.00;1.00;;;;;12.97;76.00;101682.16;4956280;28;45315;-49
2023/01/02 11:17:41;;;;;;;;;0.00;0.00;;;;;12.97;75.48;101698.19;4956658;28;45336;-47
2023/01/02 11:20:22;;;;;;;;;1.00;1.00;;;;;12.85;75.61;101677.09;4956157;28;47060;-49
2023/01/02 11:22:47;;;;;;;;;3.33;1.67;;;;;12.93;75.35;101701.28;4956076;28;45410;-47
2023/01/02 11:25:23;;;;;;;;;1.00;1.00;;;;;12.92;75.68;101702.28;4956321;28;45482;-47
2023/01/02 11:27:50;;;;;;;;;1.67;0.00;;;;;12.97;75.95;101706.22;4956473;28;45359;-49
2023/01/02 11:30:42;;;;;;;;;1.33;1.00;;;;;13.02;75.39;101687.13;4957491;28;45376;-45
2023/01/02 11:33:23;;;;;;;;;0.00;0.00;;;;;13.16;75.24;101686.69;4954294;28;45335;-48
2023/01/02 11:35:55;;;;;;;;;1.00;1.00;;;;;13.28;75.14;101691.94;4956329;28;45242;-48
2023/01/02 11:38:27;;;;;;;;;0.33;0.33;;;;;13.33;74.57;101701.22;4956490;28;46167;-51
2023/01/02 11:40:58;;;;;;;;;3.00;3.00;;;;;13.39;74.36;101703.31;4955850;28;46395;-46